CheckWX is a tool to help pilots better visualize weather data.  It is not intended as a substitute for an official pre-flight weather briefing.

05:09:44 UTC

EBCI METAR
Brussels South Charleroi Airport
Brussels, Belgium
Current

50 mins ago

EBCI 240420Z 15003KT CAVOK 04/M06 Q1035 NOSIG
Observed
Feb-24 @ 04:20 UTC
Wind
  • 150° at 3 KTS
Visibility
10,000+ meters
Flight Rules
VFR
Cloud Levels
  • Clear skies
Temperature
C / 39°F
Dewpoint
-6°C / 21°F
Humidity
48%
Altimeter
30.56" Hg
Pressure
1034.91 hPa
Previous

1 hour ago

EBCI 240350Z VRB02KT CAVOK 05/M08 Q1035 NOSIG
Observed
Feb-24 @ 03:50 UTC
Wind
  • Variable at 2 KTS
Visibility
10,000+ meters
Flight Rules
VFR
Cloud Levels
  • Clear skies
Temperature
C / 41°F
Dewpoint
-8°C / 18°F
Humidity
39%
Altimeter
30.56" Hg
Pressure
1034.91 hPa
Previous

2 hours ago

EBCI 240320Z 14003KT CAVOK 04/M07 Q1034 NOSIG
Observed
Feb-24 @ 03:20 UTC
Wind
  • 140° at 3 KTS
Visibility
10,000+ meters
Flight Rules
VFR
Cloud Levels
  • Clear skies
Temperature
C / 39°F
Dewpoint
-7°C / 19°F
Humidity
45%
Altimeter
30.53" Hg
Pressure
1033.91 hPa